sensor_id;sensor_type;location;lat;lon;timestamp;temperature;humidity
25192;DHT22;13143;50.924;5.320;2024-02-04T00:01:19;11.50;99.90
25192;DHT22;13143;50.924;5.320;2024-02-04T00:03:44;11.50;99.90
25192;DHT22;13143;50.924;5.320;2024-02-04T00:06:10;11.50;99.90
25192;DHT22;13143;50.924;5.320;2024-02-04T00:08:36;11.50;99.90
25192;DHT22;13143;50.924;5.320;2024-02-04T00:11:02;11.50;99.90
25192;DHT22;13143;50.924;5.320;2024-02-04T00:13:30;11.50;99.90
25192;DHT22;13143;50.924;5.320;2024-02-04T00:15:56;11.50;99.90
25192;DHT22;13143;50.924;5.320;2024-02-04T00:18:24;11.50;99.90
25192;DHT22;13143;50.924;5.320;2024-02-04T00:20:50;11.50;99.90
25192;DHT22;13143;50.924;5.320;2024-02-04T00:23:15;11.50;99.90
25192;DHT22;13143;50.924;5.320;2024-02-04T00:25:41;11.50;99.90
25192;DHT22;13143;50.924;5.320;2024-02-04T00:28:07;11.50;99.90
25192;DHT22;13143;50.924;5.320;2024-02-04T00:30:37;11.50;99.90
25192;DHT22;13143;50.924;5.320;2024-02-04T00:33:03;11.50;99.90
25192;DHT22;13143;50.924;5.320;2024-02-04T00:35:29;11.50;99.90
25192;DHT22;13143;50.924;5.320;2024-02-04T00:37:55;11.50;99.90
25192;DHT22;13143;50.924;5.320;2024-02-04T00:40:21;11.50;99.90
25192;DHT22;13143;50.924;5.320;2024-02-04T00:42:46;11.50;99.90
25192;DHT22;13143;50.924;5.320;2024-02-04T00:45:12;11.50;99.90
25192;DHT22;13143;50.924;5.320;2024-02-04T00:47:38;11.50;99.90
25192;DHT22;13143;50.924;5.320;2024-02-04T00:50:04;11.50;99.90
25192;DHT22;13143;50.924;5.320;2024-02-04T00:52:30;11.50;99.90
25192;DHT22;13143;50.924;5.320;2024-02-04T00:54:56;11.50;99.90
25192;DHT22;13143;50.924;5.320;2024-02-04T00:57:21;11.50;99.90
25192;DHT22;13143;50.924;5.320;2024-02-04T00:59:47;11.50;99.90
25192;DHT22;13143;50.924;5.320;2024-02-04T01:02:13;11.50;99.90
25192;DHT22;13143;50.924;5.320;2024-02-04T01:04:39;11.50;99.90
25192;DHT22;13143;50.924;5.320;2024-02-04T01:07:04;11.50;99.90
25192;DHT22;13143;50.924;5.320;2024-02-04T01:09:30;11.50;99.90
25192;DHT22;13143;50.924;5.320;2024-02-04T01:11:56;11.50;99.90
25192;DHT22;13143;50.924;5.320;2024-02-04T01:14:21;11.50;99.90
25192;DHT22;13143;50.924;5.320;2024-02-04T01:16:47;11.50;99.90
25192;DHT22;13143;50.924;5.320;2024-02-04T01:19:13;11.50;99.90
25192;DHT22;13143;50.924;5.320;2024-02-04T01:21:38;11.50;99.90
25192;DHT22;13143;50.924;5.320;2024-02-04T01:24:05;11.50;99.90
25192;DHT22;13143;50.924;5.320;2024-02-04T01:26:30;11.50;99.90
25192;DHT22;13143;50.924;5.320;2024-02-04T01:28:56;11.50;99.90
25192;DHT22;13143;50.924;5.320;2024-02-04T01:31:22;11.50;99.90
25192;DHT22;13143;50.924;5.320;2024-02-04T01:33:47;11.50;99.90
25192;DHT22;13143;50.924;5.320;2024-02-04T01:36:13;11.50;99.90
25192;DHT22;13143;50.924;5.320;2024-02-04T01:38:39;11.50;99.90
25192;DHT22;13143;50.924;5.320;2024-02-04T01:41:04;11.50;99.90
25192;DHT22;13143;50.924;5.320;2024-02-04T01:43:30;11.50;99.90
25192;DHT22;13143;50.924;5.320;2024-02-04T01:45:57;11.50;99.90
25192;DHT22;13143;50.924;5.320;2024-02-04T01:48:23;11.50;99.90
25192;DHT22;13143;50.924;5.320;2024-02-04T01:50:50;11.50;99.90
25192;DHT22;13143;50.924;5.320;2024-02-04T01:53:19;11.50;99.90
25192;DHT22;13143;50.924;5.320;2024-02-04T01:55:46;11.50;99.90
25192;DHT22;13143;50.924;5.320;2024-02-04T01:58:13;11.50;99.90
25192;DHT22;13143;50.924;5.320;2024-02-04T02:00:39;11.50;99.90
25192;DHT22;13143;50.924;5.320;2024-02-04T02:03:06;11.50;99.90
25192;DHT22;13143;50.924;5.320;2024-02-04T02:05:35;11.50;99.90
25192;DHT22;13143;50.924;5.320;2024-02-04T02:08:01;11.50;99.90
25192;DHT22;13143;50.924;5.320;2024-02-04T02:10:26;11.50;99.90
25192;DHT22;13143;50.924;5.320;2024-02-04T02:12:58;11.50;99.90
25192;DHT22;13143;50.924;5.320;2024-02-04T02:15:28;11.50;99.90
25192;DHT22;13143;50.924;5.320;2024-02-04T02:18:02;11.50;99.90
25192;DHT22;13143;50.924;5.320;2024-02-04T02:23:12;11.50;99.90
25192;DHT22;13143;50.924;5.320;2024-02-04T02:25:40;11.50;99.90
25192;DHT22;13143;50.924;5.320;2024-02-04T02:28:07;11.50;99.90
25192;DHT22;13143;50.924;5.320;2024-02-04T02:30:32;11.50;99.90
25192;DHT22;13143;50.924;5.320;2024-02-04T02:32:58;11.50;99.90
25192;DHT22;13143;50.924;5.320;2024-02-04T02:35:25;11.50;99.90
25192;DHT22;13143;50.924;5.320;2024-02-04T02:40:34;11.50;99.90
25192;DHT22;13143;50.924;5.320;2024-02-04T02:43:04;11.50;99.90
25192;DHT22;13143;50.924;5.320;2024-02-04T02:45:31;11.50;99.90
25192;DHT22;13143;50.924;5.320;2024-02-04T02:47:58;11.50;99.90
25192;DHT22;13143;50.924;5.320;2024-02-04T02:50:24;11.50;99.90
25192;DHT22;13143;50.924;5.320;2024-02-04T02:52:49;11.50;99.90
25192;DHT22;13143;50.924;5.320;2024-02-04T02:55:15;11.50;99.90
25192;DHT22;13143;50.924;5.320;2024-02-04T02:57:41;11.50;99.90
25192;DHT22;13143;50.924;5.320;2024-02-04T03:00:07;11.50;99.90
25192;DHT22;13143;50.924;5.320;2024-02-04T03:02:34;11.50;99.90
25192;DHT22;13143;50.924;5.320;2024-02-04T03:05:00;11.50;99.90
25192;DHT22;13143;50.924;5.320;2024-02-04T03:07:26;11.50;99.90
25192;DHT22;13143;50.924;5.320;2024-02-04T03:09:53;11.50;99.90
25192;DHT22;13143;50.924;5.320;2024-02-04T03:12:19;11.50;99.90
25192;DHT22;13143;50.924;5.320;2024-02-04T03:14:45;11.50;99.90
25192;DHT22;13143;50.924;5.320;2024-02-04T03:17:11;11.50;99.90
25192;DHT22;13143;50.924;5.320;2024-02-04T03:19:37;11.50;99.90
25192;DHT22;13143;50.924;5.320;2024-02-04T03:22:03;11.60;99.90
25192;DHT22;13143;50.924;5.320;2024-02-04T03:24:29;11.50;99.90
25192;DHT22;13143;50.924;5.320;2024-02-04T03:26:54;11.50;99.90
25192;DHT22;13143;50.924;5.320;2024-02-04T03:29:20;11.50;99.90
25192;DHT22;13143;50.924;5.320;2024-02-04T03:31:46;11.60;99.90
25192;DHT22;13143;50.924;5.320;2024-02-04T03:34:12;11.60;99.90
25192;DHT22;13143;50.924;5.320;2024-02-04T03:36:38;11.60;99.90
25192;DHT22;13143;50.924;5.320;2024-02-04T03:39:06;11.60;99.90
25192;DHT22;13143;50.924;5.320;2024-02-04T03:41:32;11.60;99.90
25192;DHT22;13143;50.924;5.320;2024-02-04T03:43:57;11.60;99.90
25192;DHT22;13143;50.924;5.320;2024-02-04T03:46:23;11.50;99.90
25192;DHT22;13143;50.924;5.320;2024-02-04T03:48:49;11.60;99.90
25192;DHT22;13143;50.924;5.320;2024-02-04T03:51:18;11.50;99.90
25192;DHT22;13143;50.924;5.320;2024-02-04T03:53:45;11.60;99.90
25192;DHT22;13143;50.924;5.320;2024-02-04T03:56:11;11.60;99.90
25192;DHT22;13143;50.924;5.320;2024-02-04T03:58:37;11.60;99.90
25192;DHT22;13143;50.924;5.320;2024-02-04T04:01:02;11.60;99.90
25192;DHT22;13143;50.924;5.320;2024-02-04T04:03:28;11.60;99.90
25192;DHT22;13143;50.924;5.320;2024-02-04T04:05:54;11.60;99.90
25192;DHT22;13143;50.924;5.320;2024-02-04T04:08:19;11.60;99.90
25192;DHT22;13143;50.924;5.320;2024-02-04T04:10:45;11.60;99.90
25192;DHT22;13143;50.924;5.320;2024-02-04T04:13:12;11.60;99.90
25192;DHT22;13143;50.924;5.320;2024-02-04T04:15:38;11.60;99.90
25192;DHT22;13143;50.924;5.320;2024-02-04T04:18:04;11.60;99.90
25192;DHT22;13143;50.924;5.320;2024-02-04T04:20:30;11.60;99.90
25192;DHT22;13143;50.924;5.320;2024-02-04T04:22:56;11.60;99.90
25192;DHT22;13143;50.924;5.320;2024-02-04T04:25:21;11.60;99.90
25192;DHT22;13143;50.924;5.320;2024-02-04T04:27:47;11.60;99.90
25192;DHT22;13143;50.924;5.320;2024-02-04T04:30:13;11.60;99.90
25192;DHT22;13143;50.924;5.320;2024-02-04T04:32:39;11.60;99.90
25192;DHT22;13143;50.924;5.320;2024-02-04T04:35:04;11.60;99.90
25192;DHT22;13143;50.924;5.320;2024-02-04T04:37:30;11.60;99.90
25192;DHT22;13143;50.924;5.320;2024-02-04T04:39:56;11.60;99.90
25192;DHT22;13143;50.924;5.320;2024-02-04T04:42:21;11.60;99.90
25192;DHT22;13143;50.924;5.320;2024-02-04T04:44:47;11.60;99.90
25192;DHT22;13143;50.924;5.320;2024-02-04T04:47:15;11.60;99.90
25192;DHT22;13143;50.924;5.320;2024-02-04T04:49:40;11.60;99.90
25192;DHT22;13143;50.924;5.320;2024-02-04T04:52:07;11.60;99.90
25192;DHT22;13143;50.924;5.320;2024-02-04T04:54:33;11.60;99.90
25192;DHT22;13143;50.924;5.320;2024-02-04T04:56:58;11.60;99.90
25192;DHT22;13143;50.924;5.320;2024-02-04T04:59:24;11.60;99.90
25192;DHT22;13143;50.924;5.320;2024-02-04T05:01:50;11.60;99.90
25192;DHT22;13143;50.924;5.320;2024-02-04T05:04:16;11.60;99.90
25192;DHT22;13143;50.924;5.320;2024-02-04T05:06:44;11.60;99.90
25192;DHT22;13143;50.924;5.320;2024-02-04T05:09:10;11.60;99.90
25192;DHT22;13143;50.924;5.320;2024-02-04T05:11:35;11.60;99.90
25192;DHT22;13143;50.924;5.320;2024-02-04T05:14:01;11.60;99.90
25192;DHT22;13143;50.924;5.320;2024-02-04T05:16:27;11.60;99.90
25192;DHT22;13143;50.924;5.320;2024-02-04T05:18:52;11.60;99.90
25192;DHT22;13143;50.924;5.320;2024-02-04T05:21:18;11.60;99.90
25192;DHT22;13143;50.924;5.320;2024-02-04T05:23:44;11.60;99.90
25192;DHT22;13143;50.924;5.320;2024-02-04T05:26:10;11.60;99.90
25192;DHT22;13143;50.924;5.320;2024-02-04T05:28:36;11.60;99.90
25192;DHT22;13143;50.924;5.320;2024-02-04T05:31:02;11.60;99.90
25192;DHT22;13143;50.924;5.320;2024-02-04T05:33:28;11.60;99.90
25192;DHT22;13143;50.924;5.320;2024-02-04T05:35:54;11.60;99.90
25192;DHT22;13143;50.924;5.320;2024-02-04T05:38:21;11.60;99.90
25192;DHT22;13143;50.924;5.320;2024-02-04T05:40:47;11.60;99.90
25192;DHT22;13143;50.924;5.320;2024-02-04T05:43:12;11.60;99.90
25192;DHT22;13143;50.924;5.320;2024-02-04T05:45:38;11.60;99.90
25192;DHT22;13143;50.924;5.320;2024-02-04T05:48:10;11.60;99.90
25192;DHT22;13143;50.924;5.320;2024-02-04T05:50:36;11.60;99.90
25192;DHT22;13143;50.924;5.320;2024-02-04T05:53:02;11.60;99.90
25192;DHT22;13143;50.924;5.320;2024-02-04T05:55:28;11.60;99.90
25192;DHT22;13143;50.924;5.320;2024-02-04T05:57:54;11.60;99.90
25192;DHT22;13143;50.924;5.320;2024-02-04T06:00:20;11.60;99.90
25192;DHT22;13143;50.924;5.320;2024-02-04T06:02:46;11.60;99.90
25192;DHT22;13143;50.924;5.320;2024-02-04T06:05:12;11.60;99.90
25192;DHT22;13143;50.924;5.320;2024-02-04T06:07:38;11.60;99.90
25192;DHT22;13143;50.924;5.320;2024-02-04T06:10:05;11.60;99.90
25192;DHT22;13143;50.924;5.320;2024-02-04T06:12:31;11.60;99.90
25192;DHT22;13143;50.924;5.320;2024-02-04T06:14:56;11.60;99.90
25192;DHT22;13143;50.924;5.320;2024-02-04T06:17:22;11.60;99.90
25192;DHT22;13143;50.924;5.320;2024-02-04T06:19:48;11.60;99.90
25192;DHT22;13143;50.924;5.320;2024-02-04T06:22:15;11.60;99.90
25192;DHT22;13143;50.924;5.320;2024-02-04T06:24:41;11.60;99.90
25192;DHT22;13143;50.924;5.320;2024-02-04T06:27:11;11.60;99.90
25192;DHT22;13143;50.924;5.320;2024-02-04T06:29:37;11.60;99.90
25192;DHT22;13143;50.924;5.320;2024-02-04T06:32:05;11.60;99.90
25192;DHT22;13143;50.924;5.320;2024-02-04T06:34:31;11.60;99.90
25192;DHT22;13143;50.924;5.320;2024-02-04T06:36:56;11.60;99.90
25192;DHT22;13143;50.924;5.320;2024-02-04T06:39:22;11.60;99.90
25192;DHT22;13143;50.924;5.320;2024-02-04T06:41:48;11.60;99.90
25192;DHT22;13143;50.924;5.320;2024-02-04T06:44:13;11.60;99.90
25192;DHT22;13143;50.924;5.320;2024-02-04T06:46:39;11.60;99.90
25192;DHT22;13143;50.924;5.320;2024-02-04T06:49:05;11.60;99.90
25192;DHT22;13143;50.924;5.320;2024-02-04T06:51:31;11.60;99.90
25192;DHT22;13143;50.924;5.320;2024-02-04T06:53:56;11.60;99.90
25192;DHT22;13143;50.924;5.320;2024-02-04T06:56:22;11.60;99.90
25192;DHT22;13143;50.924;5.320;2024-02-04T06:58:48;11.60;99.90
25192;DHT22;13143;50.924;5.320;2024-02-04T07:01:14;11.60;99.90
25192;DHT22;13143;50.924;5.320;2024-02-04T07:03:40;11.60;99.90
25192;DHT22;13143;50.924;5.320;2024-02-04T07:06:06;11.60;99.90
25192;DHT22;13143;50.924;5.320;2024-02-04T07:08:32;11.60;99.90
25192;DHT22;13143;50.924;5.320;2024-02-04T07:10:58;11.60;99.90
25192;DHT22;13143;50.924;5.320;2024-02-04T07:13:23;11.60;99.90
25192;DHT22;13143;50.924;5.320;2024-02-04T07:15:49;11.60;99.90
25192;DHT22;13143;50.924;5.320;2024-02-04T07:18:15;11.60;99.90
25192;DHT22;13143;50.924;5.320;2024-02-04T07:20:42;11.60;99.90
25192;DHT22;13143;50.924;5.320;2024-02-04T07:23:10;11.60;99.90
25192;DHT22;13143;50.924;5.320;2024-02-04T07:25:35;11.60;99.90
25192;DHT22;13143;50.924;5.320;2024-02-04T07:28:02;11.60;99.90
25192;DHT22;13143;50.924;5.320;2024-02-04T07:30:28;11.60;99.90
25192;DHT22;13143;50.924;5.320;2024-02-04T07:32:54;11.60;99.90
25192;DHT22;13143;50.924;5.320;2024-02-04T07:35:19;11.60;99.90
25192;DHT22;13143;50.924;5.320;2024-02-04T07:37:45;11.60;99.90
25192;DHT22;13143;50.924;5.320;2024-02-04T07:40:11;11.60;99.90
25192;DHT22;13143;50.924;5.320;2024-02-04T07:42:37;11.60;99.90
25192;DHT22;13143;50.924;5.320;2024-02-04T07:45:03;11.60;99.90
25192;DHT22;13143;50.924;5.320;2024-02-04T07:47:34;11.60;99.90
25192;DHT22;13143;50.924;5.320;2024-02-04T07:50:00;11.60;99.90
25192;DHT22;13143;50.924;5.320;2024-02-04T07:52:25;11.60;99.90
25192;DHT22;13143;50.924;5.320;2024-02-04T07:54:51;11.60;99.90
25192;DHT22;13143;50.924;5.320;2024-02-04T07:57:17;11.60;99.90
25192;DHT22;13143;50.924;5.320;2024-02-04T07:59:42;11.60;99.90
25192;DHT22;13143;50.924;5.320;2024-02-04T08:02:08;11.60;99.90
25192;DHT22;13143;50.924;5.320;2024-02-04T08:04:34;11.60;99.90
25192;DHT22;13143;50.924;5.320;2024-02-04T08:07:00;11.60;99.90
25192;DHT22;13143;50.924;5.320;2024-02-04T08:09:26;11.60;99.90
25192;DHT22;13143;50.924;5.320;2024-02-04T08:11:51;11.60;99.90
25192;DHT22;13143;50.924;5.320;2024-02-04T08:14:17;11.60;99.90
25192;DHT22;13143;50.924;5.320;2024-02-04T08:16:44;11.60;99.90
25192;DHT22;13143;50.924;5.320;2024-02-04T08:19:12;11.60;99.90
25192;DHT22;13143;50.924;5.320;2024-02-04T08:21:37;11.60;99.90
25192;DHT22;13143;50.924;5.320;2024-02-04T08:24:03;11.60;99.90
25192;DHT22;13143;50.924;5.320;2024-02-04T08:26:29;11.60;99.90
25192;DHT22;13143;50.924;5.320;2024-02-04T08:28:55;11.60;99.90
25192;DHT22;13143;50.924;5.320;2024-02-04T08:31:21;11.60;99.90
25192;DHT22;13143;50.924;5.320;2024-02-04T08:33:46;11.60;99.90
25192;DHT22;13143;50.924;5.320;2024-02-04T08:36:12;11.60;99.90
25192;DHT22;13143;50.924;5.320;2024-02-04T08:38:38;11.60;99.90
25192;DHT22;13143;50.924;5.320;2024-02-04T08:41:04;11.60;99.90
25192;DHT22;13143;50.924;5.320;2024-02-04T08:43:29;11.60;99.90
25192;DHT22;13143;50.924;5.320;2024-02-04T08:45:55;11.60;99.90
25192;DHT22;13143;50.924;5.320;2024-02-04T08:48:21;11.60;99.90
25192;DHT22;13143;50.924;5.320;2024-02-04T08:50:46;11.60;99.90
25192;DHT22;13143;50.924;5.320;2024-02-04T08:53:12;11.60;99.90
25192;DHT22;13143;50.924;5.320;2024-02-04T08:55:38;11.60;99.90
25192;DHT22;13143;50.924;5.320;2024-02-04T08:58:04;11.60;99.90
25192;DHT22;13143;50.924;5.320;2024-02-04T09:00:29;11.60;99.90
25192;DHT22;13143;50.924;5.320;2024-02-04T09:02:55;11.60;99.90
25192;DHT22;13143;50.924;5.320;2024-02-04T09:05:21;11.60;99.90
25192;DHT22;13143;50.924;5.320;2024-02-04T09:07:47;11.60;99.90
25192;DHT22;13143;50.924;5.320;2024-02-04T09:10:13;11.70;99.90
25192;DHT22;13143;50.924;5.320;2024-02-04T09:12:39;11.70;99.90
25192;DHT22;13143;50.924;5.320;2024-02-04T09:15:05;11.70;99.90
25192;DHT22;13143;50.924;5.320;2024-02-04T09:17:31;11.70;99.90
25192;DHT22;13143;50.924;5.320;2024-02-04T09:20:00;11.70;99.90
25192;DHT22;13143;50.924;5.320;2024-02-04T09:22:26;11.60;99.90
25192;DHT22;13143;50.924;5.320;2024-02-04T09:24:51;11.70;99.90
25192;DHT22;13143;50.924;5.320;2024-02-04T09:27:17;11.70;99.90
25192;DHT22;13143;50.924;5.320;2024-02-04T09:29:43;11.70;99.90
25192;DHT22;13143;50.924;5.320;2024-02-04T09:32:08;11.70;99.90
25192;DHT22;13143;50.924;5.320;2024-02-04T09:34:34;11.70;99.90
25192;DHT22;13143;50.924;5.320;2024-02-04T09:37:00;11.70;99.90
25192;DHT22;13143;50.924;5.320;2024-02-04T09:39:26;11.70;99.90
25192;DHT22;13143;50.924;5.320;2024-02-04T09:41:53;11.70;99.90
25192;DHT22;13143;50.924;5.320;2024-02-04T09:44:19;11.70;99.90
25192;DHT22;13143;50.924;5.320;2024-02-04T09:46:45;11.80;99.90
25192;DHT22;13143;50.924;5.320;2024-02-04T09:49:12;11.80;99.90
25192;DHT22;13143;50.924;5.320;2024-02-04T09:51:39;11.80;99.90
25192;DHT22;13143;50.924;5.320;2024-02-04T09:54:06;11.70;99.90
25192;DHT22;13143;50.924;5.320;2024-02-04T09:56:33;11.80;99.90
25192;DHT22;13143;50.924;5.320;2024-02-04T09:59:00;11.70;99.90
25192;DHT22;13143;50.924;5.320;2024-02-04T10:01:26;11.80;99.90
25192;DHT22;13143;50.924;5.320;2024-02-04T10:03:52;11.80;99.90
25192;DHT22;13143;50.924;5.320;2024-02-04T10:06:18;11.80;99.90
25192;DHT22;13143;50.924;5.320;2024-02-04T10:08:43;11.80;99.90
25192;DHT22;13143;50.924;5.320;2024-02-04T10:11:10;11.80;99.90
25192;DHT22;13143;50.924;5.320;2024-02-04T10:13:49;11.80;99.90
25192;DHT22;13143;50.924;5.320;2024-02-04T10:16:18;11.80;99.90
25192;DHT22;13143;50.924;5.320;2024-02-04T10:18:44;11.80;99.90
25192;DHT22;13143;50.924;5.320;2024-02-04T10:21:17;11.80;99.90
25192;DHT22;13143;50.924;5.320;2024-02-04T10:23:45;11.80;99.90
25192;DHT22;13143;50.924;5.320;2024-02-04T10:26:11;11.80;99.90
25192;DHT22;13143;50.924;5.320;2024-02-04T10:28:38;11.80;99.90
25192;DHT22;13143;50.924;5.320;2024-02-04T10:31:03;11.80;99.90
25192;DHT22;13143;50.924;5.320;2024-02-04T10:33:32;11.90;99.90
25192;DHT22;13143;50.924;5.320;2024-02-04T10:35:58;11.90;99.90
25192;DHT22;13143;50.924;5.320;2024-02-04T10:38:24;11.90;99.90
25192;DHT22;13143;50.924;5.320;2024-02-04T10:40:54;11.90;99.90
25192;DHT22;13143;50.924;5.320;2024-02-04T10:43:20;11.90;99.90
25192;DHT22;13143;50.924;5.320;2024-02-04T10:45:47;11.90;99.90
25192;DHT22;13143;50.924;5.320;2024-02-04T10:48:15;11.90;99.90
25192;DHT22;13143;50.924;5.320;2024-02-04T10:50:45;11.90;99.90
25192;DHT22;13143;50.924;5.320;2024-02-04T10:53:14;11.90;99.90
25192;DHT22;13143;50.924;5.320;2024-02-04T10:55:41;11.90;99.90
25192;DHT22;13143;50.924;5.320;2024-02-04T10:58:10;11.90;99.90
25192;DHT22;13143;50.924;5.320;2024-02-04T11:00:37;11.90;99.90
25192;DHT22;13143;50.924;5.320;2024-02-04T11:03:04;12.00;99.90
25192;DHT22;13143;50.924;5.320;2024-02-04T11:05:30;11.90;99.90
25192;DHT22;13143;50.924;5.320;2024-02-04T11:07:56;11.90;99.90
25192;DHT22;13143;50.924;5.320;2024-02-04T11:10:23;11.90;99.90
25192;DHT22;13143;50.924;5.320;2024-02-04T11:12:50;12.00;99.90
25192;DHT22;13143;50.924;5.320;2024-02-04T11:15:18;12.00;99.90
25192;DHT22;13143;50.924;5.320;2024-02-04T11:25:57;12.00;99.90
25192;DHT22;13143;50.924;5.320;2024-02-04T11:28:23;12.00;99.90
25192;DHT22;13143;50.924;5.320;2024-02-04T11:30:51;12.00;99.90
25192;DHT22;13143;50.924;5.320;2024-02-04T11:33:21;12.00;99.90
25192;DHT22;13143;50.924;5.320;2024-02-04T11:38:35;12.00;99.90
25192;DHT22;13143;50.924;5.320;2024-02-04T11:41:03;12.00;99.90
25192;DHT22;13143;50.924;5.320;2024-02-04T11:43:29;12.00;99.90
25192;DHT22;13143;50.924;5.320;2024-02-04T11:45:54;12.00;99.90
25192;DHT22;13143;50.924;5.320;2024-02-04T11:48:28;12.00;99.90
25192;DHT22;13143;50.924;5.320;2024-02-04T11:50:54;12.00;99.90
25192;DHT22;13143;50.924;5.320;2024-02-04T11:53:20;12.00;99.90
25192;DHT22;13143;50.924;5.320;2024-02-04T11:55:46;12.00;99.90
25192;DHT22;13143;50.924;5.320;2024-02-04T11:58:12;12.00;99.90
25192;DHT22;13143;50.924;5.320;2024-02-04T12:00:42;12.10;99.90
25192;DHT22;13143;50.924;5.320;2024-02-04T12:03:11;12.10;99.90
25192;DHT22;13143;50.924;5.320;2024-02-04T12:05:37;12.00;99.90
25192;DHT22;13143;50.924;5.320;2024-02-04T12:08:05;12.10;99.90
25192;DHT22;13143;50.924;5.320;2024-02-04T12:10:33;12.00;99.90
25192;DHT22;13143;50.924;5.320;2024-02-04T12:13:04;12.10;99.90
25192;DHT22;13143;50.924;5.320;2024-02-04T12:15:30;12.10;99.90
25192;DHT22;13143;50.924;5.320;2024-02-04T12:18:05;12.10;99.90
25192;DHT22;13143;50.924;5.320;2024-02-04T12:20:30;12.10;99.90
25192;DHT22;13143;50.924;5.320;2024-02-04T12:22:56;12.10;99.90
25192;DHT22;13143;50.924;5.320;2024-02-04T12:25:22;12.10;99.90
25192;DHT22;13143;50.924;5.320;2024-02-04T12:27:52;12.10;99.90
25192;DHT22;13143;50.924;5.320;2024-02-04T12:30:17;12.10;99.90
25192;DHT22;13143;50.924;5.320;2024-02-04T12:32:43;12.10;99.90
25192;DHT22;13143;50.924;5.320;2024-02-04T12:35:13;12.10;99.90
25192;DHT22;13143;50.924;5.320;2024-02-04T12:37:50;12.10;99.90
25192;DHT22;13143;50.924;5.320;2024-02-04T12:40:27;12.10;99.90
25192;DHT22;13143;50.924;5.320;2024-02-04T12:42:54;12.10;99.90
25192;DHT22;13143;50.924;5.320;2024-02-04T12:45:21;12.10;99.90
25192;DHT22;13143;50.924;5.320;2024-02-04T12:47:55;12.10;99.90
25192;DHT22;13143;50.924;5.320;2024-02-04T12:50:21;12.10;99.90
25192;DHT22;13143;50.924;5.320;2024-02-04T12:53:09;12.10;99.90
25192;DHT22;13143;50.924;5.320;2024-02-04T12:55:38;12.10;99.90
25192;DHT22;13143;50.924;5.320;2024-02-04T12:58:06;12.10;99.90
25192;DHT22;13143;50.924;5.320;2024-02-04T13:00:36;12.10;99.90
25192;DHT22;13143;50.924;5.320;2024-02-04T13:03:06;12.20;99.90
25192;DHT22;13143;50.924;5.320;2024-02-04T13:05:33;12.20;99.90
25192;DHT22;13143;50.924;5.320;2024-02-04T13:08:01;12.10;99.90
25192;DHT22;13143;50.924;5.320;2024-02-04T13:10:28;12.20;99.90
25192;DHT22;13143;50.924;5.320;2024-02-04T13:13:04;12.10;99.90
25192;DHT22;13143;50.924;5.320;2024-02-04T13:15:42;12.20;99.90
25192;DHT22;13143;50.924;5.320;2024-02-04T13:18:08;12.10;99.90
25192;DHT22;13143;50.924;5.320;2024-02-04T13:20:36;12.10;99.90
25192;DHT22;13143;50.924;5.320;2024-02-04T13:23:02;12.10;99.90
25192;DHT22;13143;50.924;5.320;2024-02-04T13:25:30;12.20;99.90
25192;DHT22;13143;50.924;5.320;2024-02-04T13:27:57;12.10;99.90
25192;DHT22;13143;50.924;5.320;2024-02-04T13:30:22;12.20;99.90
25192;DHT22;13143;50.924;5.320;2024-02-04T13:32:48;12.10;99.90
25192;DHT22;13143;50.924;5.320;2024-02-04T13:35:14;12.20;99.90
25192;DHT22;13143;50.924;5.320;2024-02-04T13:37:43;12.20;99.90
25192;DHT22;13143;50.924;5.320;2024-02-04T13:40:21;12.10;99.90
25192;DHT22;13143;50.924;5.320;2024-02-04T13:42:47;12.10;99.90
25192;DHT22;13143;50.924;5.320;2024-02-04T13:45:13;12.20;99.90
25192;DHT22;13143;50.924;5.320;2024-02-04T13:47:39;12.20;99.90
25192;DHT22;13143;50.924;5.320;2024-02-04T13:50:06;12.20;99.90
25192;DHT22;13143;50.924;5.320;2024-02-04T13:52:36;12.20;99.90
25192;DHT22;13143;50.924;5.320;2024-02-04T13:55:03;12.20;99.90
25192;DHT22;13143;50.924;5.320;2024-02-04T13:57:32;12.20;99.90
25192;DHT22;13143;50.924;5.320;2024-02-04T13:59:59;12.20;99.90
25192;DHT22;13143;50.924;5.320;2024-02-04T14:02:24;12.20;99.90
25192;DHT22;13143;50.924;5.320;2024-02-04T14:04:52;12.20;99.90
25192;DHT22;13143;50.924;5.320;2024-02-04T14:07:18;12.10;99.90
25192;DHT22;13143;50.924;5.320;2024-02-04T14:09:44;12.20;99.90
25192;DHT22;13143;50.924;5.320;2024-02-04T14:12:09;12.20;99.90
25192;DHT22;13143;50.924;5.320;2024-02-04T14:14:37;12.20;99.90
25192;DHT22;13143;50.924;5.320;2024-02-04T14:17:03;12.10;99.90
25192;DHT22;13143;50.924;5.320;2024-02-04T14:19:28;12.10;99.90
25192;DHT22;13143;50.924;5.320;2024-02-04T14:21:54;12.10;99.90
25192;DHT22;13143;50.924;5.320;2024-02-04T14:24:20;12.20;99.90
25192;DHT22;13143;50.924;5.320;2024-02-04T14:26:46;12.10;99.90
25192;DHT22;13143;50.924;5.320;2024-02-04T14:29:11;12.20;99.90
25192;DHT22;13143;50.924;5.320;2024-02-04T14:31:37;12.20;99.90
25192;DHT22;13143;50.924;5.320;2024-02-04T14:34:03;12.10;99.90
25192;DHT22;13143;50.924;5.320;2024-02-04T14:36:28;12.10;99.90
25192;DHT22;13143;50.924;5.320;2024-02-04T14:38:55;12.20;99.90
25192;DHT22;13143;50.924;5.320;2024-02-04T14:41:23;12.20;99.90
25192;DHT22;13143;50.924;5.320;2024-02-04T14:43:49;12.20;99.90
25192;DHT22;13143;50.924;5.320;2024-02-04T14:46:14;12.20;99.90
25192;DHT22;13143;50.924;5.320;2024-02-04T14:48:40;12.20;99.90
25192;DHT22;13143;50.924;5.320;2024-02-04T14:51:06;12.20;99.90
25192;DHT22;13143;50.924;5.320;2024-02-04T14:53:32;12.20;99.90
25192;DHT22;13143;50.924;5.320;2024-02-04T14:55:57;12.20;99.90
25192;DHT22;13143;50.924;5.320;2024-02-04T14:58:23;12.20;99.90
25192;DHT22;13143;50.924;5.320;2024-02-04T15:00:49;12.20;99.90
25192;DHT22;13143;50.924;5.320;2024-02-04T15:03:15;12.20;99.90
25192;DHT22;13143;50.924;5.320;2024-02-04T15:05:41;12.20;99.90
25192;DHT22;13143;50.924;5.320;2024-02-04T15:08:07;12.20;99.90
25192;DHT22;13143;50.924;5.320;2024-02-04T15:10:33;12.20;99.90
25192;DHT22;13143;50.924;5.320;2024-02-04T15:13:00;12.20;99.90
25192;DHT22;13143;50.924;5.320;2024-02-04T15:15:26;12.20;99.90
25192;DHT22;13143;50.924;5.320;2024-02-04T15:17:52;12.20;99.90
25192;DHT22;13143;50.924;5.320;2024-02-04T15:20:18;12.20;99.90
25192;DHT22;13143;50.924;5.320;2024-02-04T15:22:44;12.20;99.90
25192;DHT22;13143;50.924;5.320;2024-02-04T15:25:12;12.20;99.90
25192;DHT22;13143;50.924;5.320;2024-02-04T15:27:42;12.20;99.90
25192;DHT22;13143;50.924;5.320;2024-02-04T15:30:12;12.20;99.90
25192;DHT22;13143;50.924;5.320;2024-02-04T15:32:38;12.20;99.90
25192;DHT22;13143;50.924;5.320;2024-02-04T15:35:04;12.20;99.90
25192;DHT22;13143;50.924;5.320;2024-02-04T15:37:31;12.20;99.90
25192;DHT22;13143;50.924;5.320;2024-02-04T15:39:56;12.20;99.90
25192;DHT22;13143;50.924;5.320;2024-02-04T15:42:22;12.20;99.90